PWSweather.com
Personal Weather Stations
Station Observations
REUBENS
Camas Prairie, Reubens, ID 83548

Camas PrairieReubens, ID 83548

Lat: 46.35417, Lon: -116.53167

Elevation: 3480

Station Type: Davis VantagePro 2

http://www.theobrienranch.com/wx/wx.htm

Latest ConditionsUpdated 5:15:01 AM PST Thursday, Nov 14, 2019
Currently Today's Max Today's Min Today's Average
Temperature 31.4°F-0.3°C 35.7°F2.1°C 31.4°F-0.3°C 33.3°F0.7°C
Dew Point 30.7°F-0.7°C 34.2°F1.2°C 30.7°F-0.7°C 32.4°F0.2°C
Winds 2.3 mph E3.7 kmh E 6.9 mph -11.1 kmh - - 4.6 mph 7.4 kmh
Wind Gusts 3.5 mph5.6 kmh 8.1 mph13.0 kmh - -
Humidity 97% 97% 94% 97%
Pressure 30.32 in1026.8 mb 30.32 in1026.8 mb 30.29 in1025.7 mb -
Hour Temp Dew Point Humidity Winds Wind Gusts Pressure Precip Precip Rate Daily Precip Total
05:15 AM 31.4°F-0.3°C 30.7°F-0.7°C 97% 2.3 mph E3.7 kmh E 3.5 mph5.6 kmh 30.32 in1026.8 mb - 0.00 in0.0 mm 0.00 in0.0 mm
05:00 AM 31.4°F-0.3°C 30.7°F-0.7°C 97% 4.6 mph E7.4 kmh E 4.6 mph7.4 kmh 30.32 in1026.8 mb - 0.00 in0.0 mm 0.00 in0.0 mm
04:45 AM 32.3°F0.2°C 31.5°F-0.3°C 97% 3.5 mph ESE5.6 kmh ESE 3.5 mph5.6 kmh 30.32 in1026.8 mb - 0.00 in0.0 mm 0.00 in0.0 mm
04:30 AM 32.3°F0.2°C 31.5°F-0.3°C 97% 5.8 mph ESE9.3 kmh ESE 5.8 mph9.3 kmh 30.32 in1026.8 mb - 0.00 in0.0 mm 0.00 in0.0 mm
04:15 AM 32.4°F0.2°C 31.6°F-0.2°C 97% 6.9 mph ESE11.1 kmh ESE 8.1 mph13.0 kmh 30.32 in1026.8 mb - 0.00 in0.0 mm 0.00 in0.0 mm
04:00 AM 32.2°F0.1°C 31.4°F-0.3°C 97% 5.8 mph SE9.3 kmh SE 5.8 mph9.3 kmh 30.31 in1026.4 mb - 0.00 in0.0 mm 0.00 in0.0 mm
03:45 AM 33.2°F0.7°C 32.5°F0.3°C 97% 5.8 mph ESE9.3 kmh ESE 5.8 mph9.3 kmh 30.30 in1026.1 mb - 0.00 in0.0 mm 0.00 in0.0 mm
03:30 AM 33.8°F1.0°C 33.0°F0.6°C 97% 5.8 mph SE9.3 kmh SE 6.9 mph11.1 kmh 30.31 in1026.4 mb - 0.00 in0.0 mm 0.00 in0.0 mm
03:15 AM 33.8°F1.0°C 33.0°F0.6°C 97% 5.8 mph ESE9.3 kmh ESE 6.9 mph11.1 kmh 30.31 in1026.4 mb - 0.00 in0.0 mm 0.00 in0.0 mm
03:00 AM 33.8°F1.0°C 33.0°F0.6°C 97% 3.5 mph SE5.6 kmh SE 4.6 mph7.4 kmh 30.29 in1025.7 mb - 0.00 in0.0 mm 0.00 in0.0 mm
02:45 AM 33.7°F0.9°C 33.0°F0.6°C 97% Calm Calm 1.2 mph1.9 kmh 30.30 in1026.1 mb - 0.00 in0.0 mm 0.00 in0.0 mm
02:30 AM 34.0°F1.1°C 33.2°F0.7°C 97% 2.3 mph SE3.7 kmh SE 3.5 mph5.6 kmh 30.29 in1025.7 mb - 0.00 in0.0 mm 0.00 in0.0 mm
02:15 AM 34.1°F1.2°C 33.3°F0.7°C 97% 4.6 mph SE7.4 kmh SE 4.6 mph7.4 kmh 30.29 in1025.7 mb - 0.00 in0.0 mm 0.00 in0.0 mm
02:00 AM 33.8°F1.0°C 33.1°F0.6°C 97% 5.8 mph SE9.3 kmh SE 6.9 mph11.1 kmh 30.29 in1025.7 mb - 0.00 in0.0 mm 0.00 in0.0 mm
01:45 AM 33.1°F0.6°C 32.4°F0.2°C 97% 3.5 mph SE5.6 kmh SE 4.6 mph7.4 kmh 30.30 in1026.1 mb - 0.00 in0.0 mm 0.00 in0.0 mm
01:30 AM 32.9°F0.5°C 31.9°F-0.1°C 96% 3.5 mph SE5.6 kmh SE 3.5 mph5.6 kmh 30.30 in1026.1 mb - 0.00 in0.0 mm 0.00 in0.0 mm
01:15 AM 33.3°F0.7°C 32.3°F0.2°C 96% 4.6 mph SE7.4 kmh SE 4.6 mph7.4 kmh 30.30 in1026.1 mb - 0.00 in0.0 mm 0.00 in0.0 mm
01:00 AM 33.6°F0.9°C 32.9°F0.5°C 97% 5.8 mph SE9.3 kmh SE 6.9 mph11.1 kmh 30.30 in1026.1 mb - 0.00 in0.0 mm 0.00 in0.0 mm
12:45 AM 33.2°F0.7°C 32.2°F0.1°C 96% 5.8 mph ESE9.3 kmh ESE 6.9 mph11.1 kmh 30.31 in1026.4 mb - 0.00 in0.0 mm 0.00 in0.0 mm
12:30 AM 34.1°F1.2°C 33.1°F0.6°C 96% 4.6 mph E7.4 kmh E 3.5 mph5.6 kmh 30.30 in1026.1 mb - 0.00 in0.0 mm 0.00 in0.0 mm
12:15 AM 34.5°F1.4°C 33.3°F0.7°C 95% 5.8 mph E9.3 kmh E 6.9 mph11.1 kmh 30.29 in1025.7 mb - 0.00 in0.0 mm 0.00 in0.0 mm
12:00 AM 35.7°F2.1°C 34.2°F1.2°C 94% 5.8 mph ESE9.3 kmh ESE 4.6 mph7.4 kmh 30.30 in1026.1 mb - 0.00 in0.0 mm 0.00 in0.0 mm